Date,TemperatureHighF,TemperatureAvgF,TemperatureLowF,DewpointHighF,DewpointAvgF,DewpointLowF,HumidityHigh,HumidityAvg,HumidityLow,PressureMaxIn,PressureMinIn,WindSpeedMaxMPH,WindSpeedAvgMPH,GustSpeedMaxMPH,PrecipitationSumIn
2012-1-1,36.1,30.5,23.5,34.3,24.7,12.4,93,80,60,30.06,29.52,29,10,29,0.20
2012-1-2,23.5,18.0,12.0,12.4,4.4,-2.0,67,55,45,30.47,30.06,22,10,27,0.00
2012-1-3,25.3,17.0,7.5,10.4,-0.1,-6.0,59,47,26,30.48,30.03,14,5,17,0.00
2012-1-4,32.2,27.2,20.5,21.4,15.4,10.0,67,61,51,30.07,29.94,11,5,16,0.00
2012-1-5,48.4,37.0,25.2,30.9,24.6,14.5,73,61,47,30.04,29.62,14,4,15,0.00
2012-1-6,49.5,44.0,39.0,32.2,28.9,25.3,65,55,46,29.79,29.62,13,5,15,0.00
2012-1-7,40.5,33.1,22.8,26.1,20.7,16.0,80,61,47,30.29,29.79,16,5,18,0.00
2012-1-8,44.2,28.9,16.7,25.0,18.4,11.3,83,66,40,30.38,30.28,10,2,11,0.00
2012-1-9,47.3,35.1,25.2,27.0,24.0,19.8,81,65,43,30.27,29.86,22,7,24,0.00
2012-1-10,53.2,37.9,24.1,32.0,26.9,19.9,91,66,40,30.09,29.78,16,2,17,0.00
2012-1-11,62.1,40.1,26.1,30.2,24.6,17.2,86,60,18,29.78,29.53,7,1,8,0.00
2012-1-12,34.2,27.6,17.6,33.4,26.0,12.2,99,94,79,29.59,29.43,17,6,17,0.00
2012-1-13,20.8,18.0,15.6,12.2,9.5,5.5,79,69,61,30.08,29.59,17,8,19,0.00
2012-1-14,23.9,14.5,7.5,7.0,3.8,-2.4,72,62,46,30.31,30.07,8,2,9,0.00
2012-1-15,35.1,21.4,6.6,19.8,11.5,-1.1,73,65,51,30.36,30.01,13,4,17,0.00
2012-1-16,42.8,34.7,16.7,33.4,27.6,2.7,83,75,47,30.28,29.71,17,6,17,0.00
2012-1-17,33.3,24.2,9.5,30.6,17.5,-4.5,95,76,52,30.46,29.66,19,8,21,0.01
2012-1-18,23.4,13.4,-0.4,13.8,-0.4,-10.3,73,55,31,30.35,29.80,14,5,17,0.00
2012-1-19,23.4,6.9,-2.7,18.3,-15.2,-31.7,83,38,21,30.30,29.75,19,9,23,0.00
2012-1-20,9.9,4.2,-5.4,1.0,-11.6,-32.4,70,50,23,30.35,30.19,9,2,10,0.00
2012-1-21,33.1,16.3,-0.8,15.6,3.3,-13.7,83,57,30,30.35,30.14,8,3,10,0.00
2012-1-22,34.9,25.4,16.5,34.3,21.9,9.1,98,87,71,30.15,29.48,11,5,16,0.01
2012-1-23,42.4,34.0,27.1,42.3,30.0,16.3,99,86,63,29.88,29.29,21,8,23,0.22
2012-1-24,32.7,25.8,18.5,20.1,17.0,12.7,82,69,55,30.39,29.88,16,6,20,0.00
2012-1-25,34.3,26.6,17.1,26.4,20.4,12.0,90,78,66,30.43,30.09,8,2,9,0.00
2012-1-26,37.6,32.2,29.1,34.3,30.2,26.4,97,92,82,30.08,29.66,10,4,15,0.00
2012-1-27,44.1,34.4,28.4,30.0,21.4,6.1,92,62,23,29.95,29.66,14,6,18,0.00
2012-1-28,33.3,28.2,23.7,30.7,15.5,7.7,96,61,40,30.07,29.76,23,10,23,0.00
2012-1-29,30.7,22.7,12.6,22.1,10.3,1.9,85,60,39,30.27,29.82,17,5,19,0.00
2012-1-30,45.9,31.8,10.9,34.5,21.1,1.2,80,65,51,30.26,29.78,14,4,16,0.00
2012-1-31,54.9,46.5,38.1,43.0,38.5,33.1,87,74,63,29.89,29.69,28,8,28,0.00
2012-2-1,42.6,35.9,32.5,33.4,29.3,26.4,83,77,62,30.22,29.89,12,4,15,0.00
2012-2-2,34.0,31.3,28.8,32.4,28.9,26.8,95,91,81,30.48,30.20,8,3,9,0.00
2012-2-3,35.2,32.2,28.8,30.0,28.1,27.0,93,85,76,30.53,30.41,11,3,11,0.00
2012-2-4,49.3,36.0,26.2,29.1,25.0,18.7,83,65,34,30.42,30.22,14,4,17,0.00
2012-2-5,46.8,32.7,26.4,28.2,24.3,18.5,87,72,44,30.35,30.22,9,3,10,0.00
2012-2-6,43.5,31.1,26.2,27.5,23.9,21.2,84,75,50,30.24,30.07,12,6,14,0.00
2012-2-7,33.8,27.0,20.3,30.4,17.7,9.7,88,68,53,30.49,30.21,21,7,21,0.00
2012-2-8,34.9,24.6,14.9,12.9,6.2,-2.0,74,47,22,30.48,30.30,14,4,14,0.00
2012-2-9,38.8,27.0,16.5,18.3,9.9,0.1,63,50,21,30.31,30.04,17,7,19,0.00
2012-2-10,31.1,21.5,6.8,27.1,11.9,-11.0,85,67,38,30.35,29.93,20,7,24,0.00
2012-2-11,16.9,10.9,4.5,-8.3,-13.1,-16.6,50,33,21,30.45,30.35,22,10,22,0.00
2012-2-12,33.1,21.5,12.4,0.9,-5.5,-13.2,43,30,18,30.36,30.21,17,9,20,0.00
2012-2-13,30.9,23.5,13.1,24.6,10.5,-2.6,86,60,29,30.22,29.87,12,3,15,0.00
2012-2-14,35.8,31.1,26.6,27.1,24.3,22.1,89,76,63,30.00,29.82,10,4,12,0.04
2012-2-15,52.9,38.0,32.0,34.3,30.5,24.8,90,75,47,30.08,29.98,15,4,15,0.00
2012-2-16,46.0,37.4,31.5,33.3,25.8,14.4,92,66,30,30.12,29.97,16,6,17,0.01
2012-2-17,45.7,32.7,21.6,31.8,23.3,15.4,87,69,50,30.17,29.97,11,3,14,0.01
2012-2-18,41.9,30.6,18.9,24.1,15.6,7.7,75,56,26,30.29,30.04,11,4,15,0.00
2012-2-19,46.8,28.2,15.1,24.8,14.9,8.6,82,60,24,30.29,30.16,7,1,9,0.00
2012-2-20,45.5,31.7,18.3,23.7,17.0,7.0,80,57,22,30.34,29.92,13,4,18,0.00
2012-2-21,41.9,35.4,31.8,34.0,27.8,20.5,90,74,59,29.92,29.57,16,6,19,0.08
2012-2-22,44.8,34.4,28.8,29.7,24.4,18.5,89,68,40,29.65,29.41,12,5,18,0.00
2012-2-23,40.1,31.7,21.7,30.2,26.2,18.0,91,81,61,29.63,29.48,15,3,15,0.00
2012-2-24,33.6,29.8,25.3,30.9,23.8,10.2,92,79,51,29.93,29.50,16,5,19,0.01
2012-2-25,34.9,23.2,14.9,12.4,8.3,4.6,65,53,37,30.36,29.93,15,6,17,0.00
2012-2-26,48.6,32.6,11.8,29.7,18.4,3.4,73,57,40,30.38,29.91,20,7,23,0.00
2012-2-27,36.7,30.3,20.8,17.4,14.6,11.7,71,52,42,30.52,30.01,20,8,20,0.00
2012-2-28,37.6,30.6,19.0,32.0,21.7,10.6,88,70,52,30.53,29.88,17,5,18,0.11
2012-2-29,54.1,38.3,31.8,47.1,33.1,27.5,99,83,44,29.88,29.38,22,10,27,0.43
2012-3-1,37.2,35.0,32.9,29.3,27.9,25.7,83,75,68,29.84,29.59,14,4,17,0.01
2012-3-2,37.6,33.7,31.1,32.4,29.9,28.2,94,86,74,29.83,29.38,19,5,23,0.02
2012-3-3,32.4,28.4,24.3,29.8,21.0,17.1,94,74,60,29.84,29.54,12,2,15,0.00
2012-3-4,32.2,25.4,17.6,21.0,18.0,9.9,81,74,61,30.09,29.83,8,1,8,0.00
2012-3-5,35.6,24.2,8.8,20.3,12.1,1.6,80,61,28,30.37,30.09,12,3,12,0.01
2012-3-6,64.0,46.5,27.7,42.1,30.4,18.7,73,54,41,30.23,29.77,23,10,27,0.11
2012-3-7,66.4,58.2,51.6,51.6,43.0,35.2,94,57,50,29.89,29.67,33,17,35,0.09
2012-3-8,51.1,37.4,31.6,49.5,23.6,9.3,95,60,25,30.18,29.75,22,10,22,0.19
2012-3-9,35.6,28.7,23.4,27.0,3.5,-6.0,80,35,18,30.58,30.17,20,7,23,0.01
2012-3-10,60.4,43.4,27.1,31.1,21.3,11.5,63,43,24,30.53,30.09,27,10,30,0.01
2012-3-11,69.1,54.1,42.3,41.7,27.0,5.9,59,39,10,30.23,30.00,16,6,17,0.00
2012-3-12,59.9,53.0,47.8,56.3,49.8,43.0,99,89,62,30.01,29.69,21,6,21,0.50
2012-3-13,67.1,54.2,44.6,47.5,36.1,18.5,96,58,16,30.08,29.85,14,5,17,0.00
2012-3-14,78.8,63.3,43.7,61.0,50.4,29.5,89,64,51,30.05,29.81,21,6,23,0.00
2012-3-15,75.4,60.2,45.3,63.9,54.0,40.3,99,81,56,30.06,29.89,11,4,14,0.00
2012-3-16,72.9,56.9,41.5,55.0,48.8,39.9,99,77,48,30.08,29.96,10,3,11,0.00
2012-3-17,81.9,67.4,57.9,62.6,56.6,53.4,88,70,43,30.04,29.90,15,6,18,0.00
2012-3-18,82.4,67.6,58.1,62.1,55.4,52.7,84,67,39,30.01,29.89,16,5,18,0.00
2012-3-19,77.2,66.3,58.3,64.9,60.1,55.6,99,82,55,29.97,29.86,11,4,14,0.00
2012-3-20,84.6,72.7,62.1,59.5,53.5,46.4,88,54,28,30.01,29.87,25,7,25,0.00
2012-3-21,86.2,72.5,63.0,59.5,55.4,52.5,78,57,33,30.06,29.96,15,4,18,0.00
2012-3-22,80.6,66.7,54.0,61.9,55.4,52.3,97,69,42,30.10,29.99,12,3,15,0.19
2012-3-23,58.3,55.2,50.7,57.9,54.6,50.4,99,98,97,30.05,29.79,12,4,13,0.50
2012-3-24,65.5,54.4,50.2,58.8,53.1,49.8,99,96,73,29.97,29.81,8,2,9,0.01
2012-3-25,65.1,52.9,37.0,57.4,48.0,32.4,99,84,64,30.27,29.95,21,5,22,0.00
2012-3-26,42.4,37.0,33.1,33.1,26.8,22.3,84,67,48,30.46,30.25,21,11,23,0.00
2012-3-27,71.6,54.2,38.5,58.6,38.4,22.6,81,57,32,30.29,29.67,24,9,25,0.00
2012-3-28,66.2,55.0,40.5,52.0,39.6,34.0,81,56,42,30.09,29.69,22,8,22,0.00
2012-3-29,45.1,38.9,35.1,35.2,32.3,29.5,95,78,58,30.20,30.03,17,7,18,0.00
2012-3-30,40.3,37.5,35.6,40.1,36.8,34.3,99,97,89,30.03,29.80,21,7,60,0.39
2012-3-31,43.7,37.8,35.6,37.0,35.0,33.3,97,90,74,30.04,29.83,10,4,13,0.01
2012-4-1,51.6,43.2,35.8,44.2,40.0,35.1,99,89,71,29.86,29.73,15,6,17,0.00
2012-4-2,55.6,47.3,41.7,40.8,38.1,33.8,93,72,46,30.00,29.83,17,9,21,0.00
2012-4-3,63.1,50.7,44.6,46.0,41.2,37.8,81,70,50,30.02,29.84,16,5,18,0.00
2012-4-4,56.3,46.4,33.8,41.0,31.0,25.0,96,58,35,30.04,29.96,16,4,19,0.00
2012-4-5,45.0,40.0,36.0,35.2,27.9,15.6,88,64,35,30.23,30.03,21,10,22,0.00
2012-4-6,54.1,42.3,31.8,35.1,25.8,14.7,94,57,21,30.36,30.23,12,3,15,0.00
2012-4-7,67.1,48.2,27.5,48.9,31.8,24.1,97,60,21,30.34,30.07,14,4,15,0.01
2012-4-8,63.1,50.5,41.5,47.3,30.9,12.9,99,55,15,30.24,30.06,16,3,20,0.00
2012-4-9,58.3,47.7,35.4,35.8,22.3,10.6,81,42,17,30.06,29.91,25,0,25,0.00
2012-4-10,40.8,35.8,32.0,19.2,15.9,12.0,55,44,33,30.19,30.05,0,0,0,0.00
2012-4-11,53.8,39.5,28.9,32.9,24.8,17.8,80,56,35,30.31,30.18,0,0,0,0.00
2012-4-12,66.2,45.4,26.4,33.3,27.3,18.1,94,56,16,30.32,30.12,0,0,0,0.00
2012-4-13,62.2,50.6,33.1,41.5,32.6,24.6,99,55,24,30.25,29.97,0,0,0,0.00
2012-4-14,74.7,61.0,47.7,59.0,52.9,40.8,99,77,49,29.99,29.72,0,0,120,0.00
2012-4-15,75.2,66.0,58.1,65.5,62.0,57.7,99,88,69,29.76,29.44,0,-908,0,0.48
2012-4-16,67.1,53.0,41.0,63.5,44.9,33.1,89,74,55,30.22,29.39,0,-999,0,0.01
2012-4-17,53.8,42.3,32.7,39.2,34.1,28.6,99,75,44,30.40,30.22,0,-532,0,0.00
2012-4-18,70.2,54.9,38.1,51.8,44.7,34.9,99,71,50,30.33,29.87,0,-13,0,0.00
2012-4-19,52.3,44.0,37.9,51.1,41.4,37.4,99,91,66,30.05,29.81,16,-437,17,0.46
2012-4-20,45.7,40.9,35.1,41.0,38.4,33.3,99,91,64,30.07,29.71,0,-999,0,0.21
2012-4-21,55.0,41.2,29.8,34.2,27.2,9.3,95,62,24,30.10,30.02,0,-999,0,0.00
2012-4-22,52.3,43.9,34.5,33.8,23.3,11.1,87,49,19,30.15,30.04,0,-802,0,0.00
2012-4-23,61.0,47.9,33.4,24.3,15.8,4.8,66,31,13,30.13,29.83,9,-533,9,0.00
2012-4-24,67.6,50.7,30.6,34.7,23.1,10.4,86,41,11,29.85,29.63,0,-999,0,0.00
2012-4-25,53.1,46.6,40.8,51.3,42.9,33.3,99,88,63,29.78,29.68,0,-995,0,0.25
2012-4-26,57.2,44.9,33.8,47.7,37.8,28.2,99,78,44,30.21,29.68,0,-999,0,0.00
2012-4-27,52.2,41.4,27.3,40.1,18.4,3.6,99,49,17,30.32,30.17,0,-995,0,0.00
2012-4-28,43.3,41.3,38.3,41.4,35.9,24.3,99,83,47,30.29,30.07,0,-991,0,0.20
2012-4-29,52.9,44.5,34.0,44.4,32.1,12.2,99,69,20,30.33,30.09,0,-991,0,0.19
2012-4-30,61.9,51.9,44.1,52.5,46.7,40.1,93,83,66,30.09,29.88,0,-999,0,0.00
2012-5-1,64.4,55.7,47.7,55.4,50.6,46.0,98,83,69,30.02,29.83,0,-995,0,0.00
2012-5-2,81.5,68.7,54.7,66.4,60.1,53.8,99,77,44,29.86,29.65,0,-984,2,0.17
2012-5-3,82.2,72.2,64.4,72.1,66.6,60.6,99,83,64,29.87,29.77,0,-999,0,0.15
2012-5-4,68.2,57.7,52.0,67.8,54.4,47.3,99,89,71,30.06,29.83,0,-991,1,0.01
2012-5-5,60.6,52.5,49.8,52.9,50.0,46.9,99,92,74,30.13,29.97,0,-999,0,0.11
2012-5-6,62.8,53.3,48.7,57.9,50.8,45.7,99,92,79,30.17,29.89,7,-986,7,1.06
2012-5-7,65.3,55.2,49.1,56.3,52.6,48.9,99,92,69,29.92,29.82,1,-991,1,0.02
2012-5-8,70.2,58.9,50.0,52.5,46.4,37.9,98,67,37,29.86,29.79,7,-664,9,0.00
2012-5-9,64.0,52.8,46.9,51.8,46.5,41.5,99,81,46,29.95,29.85,0,-843,0,0.04
2012-5-10,70.9,55.6,36.5,49.6,34.3,24.4,99,53,19,30.05,29.93,0,-463,0,0.00
2012-5-11,79.0,65.2,47.7,52.0,40.6,24.8,56,42,22,30.09,29.97,9,-154,12,0.00
2012-5-12,68.2,59.5,45.5,57.7,42.4,19.9,90,57,21,30.28,30.05,11,-597,11,0.00
2012-5-13,74.1,60.1,43.5,48.7,27.9,9.5,90,41,10,30.30,30.11,11,-447,11,0.00
2012-5-14,82.0,65.2,43.3,45.7,33.6,17.6,91,40,10,30.14,29.92,9,-357,9,0.00
2012-5-15,87.1,67.6,50.4,61.5,46.4,37.9,90,52,20,30.00,29.70,18,4,21,0.11
2012-5-16,70.5,54.6,40.1,41.5,35.7,29.1,90,52,27,30.15,30.01,13,3,17,0.00
2012-5-17,74.3,57.5,40.5,43.7,37.5,28.6,93,53,20,30.20,30.01,9,1,13,0.00
2012-5-18,85.8,67.7,51.8,48.4,41.8,36.7,70,42,19,30.06,29.92,11,2,14,0.00
2012-5-19,91.8,75.5,59.5,61.5,53.9,42.3,69,48,30,30.01,29.91,13,3,14,0.00
2012-5-20,91.0,74.6,59.9,65.7,58.8,52.0,81,60,30,30.03,29.84,15,4,18,0.02
2012-5-21,69.4,59.6,47.8,52.2,45.5,40.6,85,62,41,30.15,30.03,13,4,15,0.00
2012-5-22,72.0,56.8,40.1,47.3,40.7,32.4,99,60,27,30.16,29.93,11,2,11,0.00
2012-5-23,81.5,63.8,42.8,49.8,45.3,41.7,99,57,26,29.96,29.69,11,2,12,0.00
2012-5-24,87.8,75.9,61.0,61.5,54.2,48.4,70,49,31,29.74,29.46,16,6,23,0.00
2012-5-25,78.3,67.6,59.0,66.2,55.6,48.7,99,69,37,30.14,29.58,12,-200,17,0.07
2012-5-26,72.9,63.1,57.4,61.9,57.8,54.7,99,84,58,30.23,30.01,13,-713,14,0.52
2012-5-27,93.7,74.9,60.8,73.0,63.1,56.1,87,68,45,30.01,29.75,9,-628,10,0.00
2012-5-28,88.2,77.4,65.1,68.4,64.8,59.0,99,68,44,29.77,29.57,15,-167,20,0.54
2012-5-29,77.0,67.0,55.9,65.8,51.6,38.5,99,62,27,29.86,29.70,9,-912,11,0.00
2012-5-30,65.8,54.7,47.3,52.0,47.6,42.1,96,79,45,30.03,29.83,11,-56,11,0.00
2012-5-31,50.5,48.1,45.3,47.1,44.5,41.0,99,88,71,30.07,29.95,11,0,12,0.28
2012-6-1,64.6,52.2,45.1,49.6,44.5,37.9,99,78,40,29.95,29.75,11,-686,12,0.05
2012-6-2,75.0,61.4,45.1,49.5,43.6,37.8,99,59,28,29.76,29.63,12,-606,14,0.01
2012-6-3,80.4,67.4,52.7,53.6,49.2,44.1,88,56,29,29.81,29.73,9,-249,9,0.00
2012-6-4,73.9,64.4,56.7,53.1,49.1,43.9,81,59,36,29.96,29.81,9,2,13,0.00
2012-6-5,69.4,61.1,51.6,54.0,48.9,43.7,98,66,42,30.08,29.94,12,1,12,0.00
2012-6-6,76.5,62.8,46.2,54.3,45.7,36.0,99,60,24,30.12,30.04,9,-62,13,0.00
2012-6-7,83.5,66.3,46.2,54.1,44.6,33.6,99,54,18,30.16,30.01,6,-7,8,0.00
2012-6-8,86.4,73.2,59.5,57.7,52.5,44.2,64,50,32,30.06,29.83,10,2,11,0.00
2012-6-9,89.2,77.5,65.1,56.8,53.7,51.3,65,46,28,29.88,29.77,11,3,11,0.00
2012-6-10,90.7,78.0,63.9,63.3,57.7,52.9,77,52,29,29.91,29.79,12,3,15,0.00
2012-6-11,86.5,77.6,69.8,71.2,64.9,54.5,78,65,53,29.84,29.70,11,4,11,0.00
2012-6-12,71.4,64.6,53.1,55.4,47.3,41.7,90,55,36,30.14,29.83,11,4,11,0.00
2012-6-13,75.2,61.5,50.0,56.5,48.1,38.1,99,65,39,30.22,30.10,14,2,14,0.00
2012-6-14,81.1,66.6,49.3,57.2,50.1,44.1,99,60,33,30.15,29.99,10,2,12,0.00
2012-6-15,93.4,75.1,54.7,59.4,53.3,45.9,90,51,26,30.06,29.98,10,2,12,0.00
2012-6-16,85.6,76.9,68.0,73.8,64.5,53.2,98,66,45,30.01,29.77,11,2,13,0.19
2012-6-17,84.7,75.0,66.0,70.0,61.0,48.6,99,67,31,29.88,29.75,9,-513,17,0.13
2012-6-18,92.1,81.3,69.1,73.0,67.9,60.4,88,65,45,29.75,29.52,4,-848,8,0.01
2012-6-19,94.5,84.6,76.1,71.1,68.7,65.1,74,60,43,29.86,29.72,15,-3,15,0.00
2012-6-20,93.2,83.7,75.4,70.5,67.5,64.8,75,59,43,29.94,29.74,21,6,21,0.00
2012-6-21,84.9,75.8,66.9,68.4,60.6,52.7,95,62,35,29.96,29.77,9,3,14,0.00
2012-6-22,84.2,70.2,57.6,61.0,55.4,46.4,94,63,29,30.00,29.89,10,3,13,0.00
2012-6-23,85.3,69.7,55.0,62.2,58.3,54.1,99,70,41,30.03,29.96,12,2,12,0.00
2012-6-24,89.1,72.4,63.1,65.7,61.2,54.3,86,69,42,30.04,29.89,12,3,13,0.00
2012-6-25,73.4,63.7,54.0,54.3,45.5,36.9,82,54,27,30.14,30.04,14,5,17,0.00
2012-6-26,82.2,65.7,46.2,57.0,50.9,43.0,99,63,25,30.11,29.92,10,2,13,0.00
2012-6-27,92.5,77.1,58.5,64.6,56.4,47.1,87,53,27,29.94,29.68,10,3,15,0.00
2012-6-28,98.6,85.3,74.5,77.7,70.5,58.1,82,62,48,29.84,29.67,7,2,8,0.00
2012-6-29,91.9,78.9,64.8,64.9,57.6,41.0,85,52,18,29.92,29.70,8,2,8,0.00
2012-6-30,93.4,79.6,66.9,70.5,65.8,57.2,99,67,32,29.84,29.74,7,2,9,0.00
2012-7-1,94.8,77.6,64.8,67.3,61.9,55.8,98,63,31,29.96,29.83,12,2,12,0.00
2012-7-2,97.7,82.6,67.8,74.3,70.2,63.5,94,69,41,29.96,29.82,8,2,8,0.00
2012-7-3,97.5,85.2,73.9,74.1,71.5,67.3,96,66,40,29.88,29.72,11,2,11,0.05
2012-7-4,102.9,89.7,77.5,77.0,71.5,63.9,88,59,31,29.82,29.73,8,2,16,0.00
2012-7-5,103.8,89.1,71.6,75.9,70.0,64.9,93,58,31,29.90,29.77,9,2,12,0.00
2012-7-6,102.9,88.7,77.2,76.8,72.6,63.9,93,62,33,29.93,29.82,9,2,11,0.00
2012-7-7,84.4,78.7,72.5,75.2,65.1,52.5,93,64,43,30.04,29.87,15,5,15,0.00
2012-7-8,87.4,76.1,64.4,63.1,56.7,52.5,87,54,32,30.10,29.98,11,3,12,0.00
2012-7-9,86.0,74.8,63.7,65.1,58.5,52.5,91,59,38,30.08,30.00,13,3,16,0.00
2012-7-10,81.7,71.4,60.6,64.2,55.6,46.0,96,62,31,30.14,30.07,16,4,16,0.00
2012-7-11,86.2,71.5,54.1,64.6,56.2,52.0,99,63,36,30.17,30.06,15,3,15,0.00
2012-7-12,93.2,76.5,61.0,69.3,56.7,47.7,99,57,25,30.11,30.00,11,2,17,0.00
2012-7-13,94.1,78.0,66.0,69.3,63.0,58.3,86,62,32,30.05,29.97,8,2,11,0.01
2012-7-14,89.1,78.2,68.2,72.1,65.7,59.7,99,70,39,30.05,29.90,9,2,11,0.08
2012-7-15,97.0,80.9,68.5,72.1,67.9,60.8,98,68,31,30.01,29.91,11,2,11,0.00
2012-7-16,99.7,85.3,72.5,73.6,67.6,59.5,92,60,31,29.98,29.74,11,3,60,0.00
2012-7-17,100.9,85.1,73.2,74.5,69.5,61.2,92,64,29,29.87,29.68,15,4,27,0.00
2012-7-18,86.9,75.7,68.7,72.3,69.6,67.1,99,83,53,29.98,29.84,13,5,13,0.37
2012-7-19,81.0,71.0,64.9,73.9,69.1,64.6,99,94,71,30.03,29.85,10,2,12,0.20
2012-7-20,84.4,72.2,62.8,66.4,59.3,50.9,99,68,35,30.10,30.01,11,3,12,0.00
2012-7-21,86.0,74.2,60.8,70.7,63.8,56.5,88,71,53,30.08,29.96,11,2,11,0.00
2012-7-22,93.9,79.8,67.8,72.7,68.2,62.6,99,71,42,30.06,29.93,9,2,11,0.00
2012-7-23,99.3,86.9,77.7,75.9,70.0,65.5,77,59,36,29.92,29.78,10,4,11,0.00
2012-7-24,83.8,75.0,67.6,76.6,64.7,53.2,99,73,43,30.03,29.84,12,3,17,0.24
2012-7-25,95.5,80.9,66.7,76.8,70.1,63.9,99,73,43,29.94,29.47,13,3,17,0.09
2012-7-26,88.9,75.3,68.7,75.0,70.9,66.4,99,88,51,29.75,29.50,11,2,19,0.78
2012-7-27,82.0,72.3,64.9,69.1,65.8,61.7,99,81,52,30.00,29.73,8,2,10,0.00
2012-7-28,82.9,71.6,62.6,68.5,64.3,61.7,99,80,49,30.12,30.00,9,2,12,0.00
2012-7-29,88.0,73.2,62.1,66.4,62.0,58.3,98,71,41,30.10,29.95,6,1,9,0.00
2012-7-30,92.1,80.1,69.1,71.8,66.6,61.7,91,66,41,29.97,29.78,8,2,10,0.00
2012-7-31,86.7,74.4,66.2,72.0,67.2,61.9,99,80,44,29.95,29.80,9,2,11,0.12
2012-8-1,90.9,76.6,64.2,72.5,65.7,60.3,99,73,39,29.96,29.79,6,1,8,0.00
2012-8-2,92.3,79.5,71.8,68.5,65.2,60.4,87,64,37,29.84,29.78,11,2,11,0.00
2012-8-3,92.1,79.0,68.9,74.1,69.4,63.1,99,76,42,29.88,29.83,11,3,14,0.00
2012-8-4,92.8,78.2,69.4,77.2,71.2,66.2,99,83,44,29.88,29.70,8,-191,11,0.12
2012-8-5,78.4,70.0,58.3,69.1,58.0,48.6,99,70,36,30.16,29.87,11,-768,11,0.00
2012-8-6,86.0,69.9,53.6,60.3,53.1,44.6,99,62,26,30.16,29.96,0,-991,0,0.00
2012-8-7,93.0,75.7,61.3,71.1,61.3,55.9,90,64,35,29.97,29.83,0,-999,0,0.00
2012-8-8,80.4,71.4,66.2,69.6,64.6,59.0,99,81,50,30.00,29.94,2,-986,2,0.00
2012-8-9,68.2,64.2,60.6,65.3,62.4,60.3,99,94,77,29.96,29.85,10,-864,10,0.37
2012-8-10,74.5,65.3,58.1,61.3,54.4,2.5,99,72,10,29.98,29.88,0,-995,0,0.04
2012-8-11,79.3,64.6,53.6,54.9,51.5,47.3,92,66,37,30.01,29.92,9,-666,9,0.00
2012-8-12,77.7,65.1,54.0,59.5,54.7,49.6,98,72,38,30.02,29.94,4,-959,4,0.00
2012-8-13,71.2,63.8,57.4,64.0,59.8,57.0,99,87,71,29.99,29.92,2,-237,3,0.04
2012-8-14,82.2,67.4,55.8,65.3,59.7,55.4,99,79,43,29.95,29.86,11,-66,12,0.00
2012-8-15,88.0,72.9,61.3,66.7,61.3,55.4,99,71,35,29.91,29.81,8,1,8,0.00
2012-8-16,73.6,68.5,62.1,69.1,61.5,54.7,99,79,57,29.91,29.72,11,3,11,0.78
2012-8-17,73.8,63.0,52.3,54.7,50.6,44.8,95,67,38,30.02,29.91,6,2,8,0.00
2012-8-18,78.4,62.7,49.1,54.3,49.0,39.4,99,67,28,30.04,29.91,6,1,8,0.00
2012-8-19,78.4,63.5,52.0,59.7,55.1,51.4,99,76,43,29.97,29.88,10,2,10,0.00
2012-8-20,78.8,62.8,50.4,62.4,54.1,50.0,99,77,39,30.02,29.92,8,1,10,0.00
2012-8-21,80.4,65.4,51.3,61.0,51.9,45.0,99,68,29,30.08,30.02,10,1,10,0.00
2012-8-22,84.4,70.3,54.9,60.3,52.8,47.7,84,57,29,30.12,29.97,8,2,8,0.00
2012-8-23,90.0,76.4,64.0,63.0,59.1,53.1,93,59,30,30.06,29.94,9,2,9,0.00
2012-8-24,92.3,78.5,69.8,65.1,61.1,57.2,74,57,33,30.01,29.90,8,2,10,0.00
2012-8-25,94.8,79.0,66.4,65.7,61.3,48.0,85,58,23,30.01,29.94,8,2,11,0.00
2012-8-26,75.9,72.1,70.0,71.4,68.1,62.8,98,88,73,30.00,29.95,4,1,6,0.38
2012-8-27,88.9,74.7,64.0,69.8,62.8,51.1,99,72,30,30.07,29.98,7,1,8,0.00
2012-8-28,81.1,68.9,59.5,69.3,61.6,58.5,99,80,50,30.12,30.04,11,3,12,0.00
2012-8-29,86.9,71.6,59.4,66.7,60.0,54.1,99,71,40,30.09,29.96,8,2,9,0.00
2012-8-30,91.2,77.6,65.7,65.1,62.3,60.4,92,62,39,29.99,29.83,13,4,14,0.00
2012-8-31,94.5,76.8,69.4,66.2,62.2,57.4,76,62,36,30.09,29.91,12,4,12,0.00
2012-9-1,75.6,70.6,67.6,66.4,61.1,52.0,91,73,46,30.10,29.98,15,6,17,0.00
2012-9-2,81.3,73.7,68.5,67.8,64.8,59.5,93,75,50,29.99,29.90,17,6,17,0.00
2012-9-3,91.8,76.4,63.9,72.3,68.6,63.0,99,79,44,29.95,29.83,11,1,11,0.00
2012-9-4,92.3,75.9,63.5,73.8,69.2,60.6,99,82,45,29.96,29.78,15,2,15,0.00
2012-9-5,89.2,70.9,61.7,68.0,63.9,60.6,99,82,40,29.88,29.70,9,2,11,0.00
2012-9-6,85.6,70.3,60.1,66.2,59.7,46.0,99,75,30,29.93,29.81,6,1,9,0.00
2012-9-7,76.1,63.9,55.0,68.4,61.3,54.1,99,92,64,29.91,29.75,11,1,11,0.00
2012-9-8,68.9,58.8,50.7,57.6,51.1,45.0,99,79,43,29.90,29.79,10,3,12,0.00
2012-9-9,74.1,59.7,50.9,56.8,49.9,-2.2,99,75,10,30.16,29.88,9,2,16,0.00
2012-9-10,78.3,63.5,50.5,54.3,51.2,46.4,99,69,34,30.22,30.04,8,2,12,0.00
2012-9-11,84.2,68.9,55.2,58.1,54.1,50.4,88,62,35,30.11,29.96,14,3,15,0.00
2012-9-12,89.4,74.0,64.4,62.2,56.2,37.8,79,56,32,30.14,29.99,9,3,11,0.00
2012-9-13,64.9,56.5,49.6,53.6,49.4,39.9,99,79,40,30.35,30.14,5,1,11,0.00
2012-9-14,76.1,58.3,44.8,58.3,46.6,37.4,99,72,26,30.37,30.23,8,1,9,0.00
2012-9-15,81.9,62.5,44.2,61.3,48.9,41.0,99,69,26,30.34,30.09,7,1,8,0.00
2012-9-16,78.4,64.2,53.6,54.9,47.9,42.3,85,59,28,30.12,29.91,11,2,14,0.00
2012-9-17,78.8,60.8,51.6,63.1,55.5,48.0,99,84,50,29.96,29.70,8,2,11,0.00
2012-9-18,61.2,49.3,40.1,49.3,40.0,28.2,99,74,30,30.04,29.83,8,2,18,0.00
2012-9-19,72.5,53.7,32.7,51.8,40.1,32.5,99,66,28,30.09,29.70,17,4,21,0.00
2012-9-20,70.5,57.3,45.9,50.5,39.5,14.5,95,58,13,29.94,29.80,13,3,14,0.00
2012-9-21,57.9,50.4,42.1,57.6,45.5,38.5,99,84,54,29.94,29.78,8,2,11,0.00
2012-9-22,57.0,47.9,38.7,48.9,42.9,38.5,99,84,60,30.17,29.77,11,3,13,0.00
2012-9-23,59.7,46.3,34.9,40.5,33.3,23.4,99,66,26,30.26,30.17,11,2,13,0.00
2012-9-24,70.0,53.0,34.3,39.7,34.2,25.2,95,56,21,30.24,29.81,15,4,17,0.00
2012-9-25,81.1,61.6,48.4,57.6,47.3,39.2,99,64,23,29.91,29.73,11,4,12,0.00
2012-9-26,69.6,54.0,43.2,50.2,45.1,38.8,99,75,34,30.24,29.90,11,3,14,0.00
2012-9-27,60.6,50.2,39.0,49.1,44.2,38.8,99,81,58,30.26,30.19,15,3,15,0.00
2012-9-28,73.4,55.9,45.5,47.3,43.0,36.5,94,67,26,30.22,30.09,8,2,10,0.00
2012-9-29,82.0,57.3,45.1,52.2,44.3,29.1,99,70,15,30.13,29.95,11,2,14,0.00
2012-9-30,67.6,53.8,42.4,53.8,45.7,40.1,99,78,38,30.03,29.96,11,3,12,0.00
2012-10-1,70.5,52.1,37.9,55.4,45.1,37.8,99,81,38,29.99,29.83,9,1,10,0.00
2012-10-2,70.7,55.2,41.4,55.4,48.5,40.5,99,82,34,29.96,29.85,11,2,11,0.00
2012-10-3,68.5,57.5,48.0,62.2,54.0,-1.8,99,89,10,30.01,29.92,9,1,10,0.00
2012-10-4,77.5,59.4,48.0,57.9,50.4,34.3,99,74,44,30.09,29.87,13,4,14,0.00
2012-10-5,52.9,44.4,36.9,49.3,29.6,23.2,94,57,37,30.14,29.88,13,5,15,0.00
2012-10-6,52.5,41.7,36.1,50.4,26.7,22.1,99,55,44,30.19,29.78,13,4,13,0.00
2012-10-7,57.9,40.8,30.2,38.7,20.6,9.7,99,48,18,30.26,30.09,10,2,11,0.00
2012-10-8,62.1,46.8,30.4,35.8,24.2,18.3,93,45,19,30.25,29.91,17,5,19,0.00
2012-10-9,79.2,51.5,40.5,50.4,37.9,31.1,99,63,29,29.91,29.73,15,6,20,0.00
2012-10-10,65.5,40.5,33.3,55.0,28.6,16.2,99,67,27,30.19,29.82,15,4,18,0.00
2012-10-11,65.3,48.2,34.9,43.7,32.2,20.8,80,56,29,30.30,29.98,18,5,22,0.00
2012-10-12,53.6,42.1,29.1,36.1,29.8,21.2,84,63,40,30.49,30.27,14,3,14,0.00
2012-10-13,63.0,50.8,41.0,62.1,49.1,32.0,99,94,56,30.28,29.72,12,3,12,0.00
2012-10-14,67.6,57.5,46.8,65.1,56.6,45.1,99,97,83,29.75,29.38,14,5,15,1.03
2012-10-15,59.7,46.6,38.5,45.1,39.6,36.0,99,79,43,29.98,29.75,11,4,12,0.00
2012-10-16,69.4,53.3,38.3,54.0,45.2,38.1,99,77,41,29.97,29.47,12,4,17,0.00
2012-10-17,70.3,61.1,52.2,59.0,53.2,49.5,99,77,52,29.47,29.23,15,5,15,0.72
2012-10-18,52.3,46.3,42.4,51.8,44.1,40.5,99,92,79,29.47,29.23,14,5,16,0.07
2012-10-19,53.1,45.7,42.3,46.6,43.4,40.3,99,92,64,29.64,29.44,11,2,11,0.04
2012-10-20,59.0,46.9,38.3,45.7,42.1,38.1,99,85,56,29.95,29.63,11,3,13,0.00
2012-10-21,69.8,50.1,33.8,50.0,44.0,33.3,99,82,43,30.05,29.93,8,2,11,0.00
2012-10-22,64.8,55.0,48.4,58.6,53.8,48.2,99,96,79,29.99,29.87,6,1,9,0.81
2012-10-23,60.8,56.2,52.3,60.3,55.6,51.8,99,98,97,29.96,29.86,7,-541,8,0.07
2012-10-24,79.5,66.7,57.2,67.8,63.0,56.8,99,89,66,29.91,29.78,10,-988,10,0.01
2012-10-25,73.2,62.0,39.9,65.7,57.7,34.5,99,86,71,30.06,29.57,22,-271,26,0.22
2012-10-26,50.2,40.4,33.1,34.5,27.3,24.1,81,61,38,30.37,30.07,17,3,17,0.00
2012-10-27,48.0,36.2,26.6,26.8,22.0,16.9,90,59,31,30.40,30.29,2,0,4,0.00
2012-10-28,48.6,38.9,33.1,32.0,25.2,16.9,78,58,42,30.37,30.30,8,0,17,0.00
2012-10-29,52.9,41.1,33.3,32.2,26.2,17.1,75,57,25,30.36,30.12,8,0,11,0.00
2012-10-30,46.0,40.2,36.3,27.9,24.8,20.1,68,54,40,30.11,29.82,15,1,19,0.00
2012-10-31,50.9,38.4,30.9,32.0,25.2,14.5,73,60,41,29.87,29.79,10,0,10,0.00
2012-11-1,51.6,40.1,30.9,31.5,21.1,6.6,75,48,22,29.96,29.82,1,0,5,0.00
2012-11-2,50.5,36.5,28.0,30.7,27.0,24.1,93,70,37,30.22,29.96,2,0,4,0.00
2012-11-3,49.5,35.1,25.5,31.6,26.7,22.3,95,73,42,30.28,30.20,3,0,8,0.00
2012-11-4,51.3,33.8,24.3,30.4,24.8,21.4,93,72,32,30.30,30.18,1,0,5,0.00
2012-11-5,42.1,34.0,22.5,39.9,31.2,20.5,99,90,75,30.28,30.14,4,0,9,0.01
2012-11-6,41.9,35.9,29.1,36.7,32.5,25.3,97,88,70,30.14,29.91,4,-88,6,0.08
2012-11-7,45.5,39.8,36.5,44.8,39.4,35.8,99,98,94,30.18,29.93,0,-939,0,0.02
2012-11-8,44.1,39.6,33.4,40.8,36.2,31.8,99,88,69,30.22,30.10,11,-337,15,0.01
2012-11-9,48.2,41.3,31.5,45.5,38.8,30.7,99,91,75,30.15,30.01,10,1,11,0.00
2012-11-10,67.5,57.8,46.9,56.3,50.4,45.3,96,78,55,30.04,29.77,11,2,17,0.00
2012-11-11,65.8,58.3,36.9,57.4,50.4,35.6,99,77,59,29.91,29.64,23,3,24,0.34
2012-11-12,36.5,28.4,24.6,35.4,19.1,10.8,97,69,54,30.36,29.90,16,1,16,0.00
2012-11-13,44.6,29.8,19.8,21.2,15.6,10.2,81,57,28,30.53,30.36,0,0,0,0.00
2012-11-14,48.2,35.7,27.7,27.9,23.7,19.6,75,62,40,30.53,30.39,9,1,9,0.00
2012-11-15,54.9,39.0,30.2,30.9,27.1,23.7,82,64,31,30.40,30.28,0,0,0,0.00
2012-11-16,51.6,37.9,28.0,41.4,33.2,23.0,94,83,64,30.53,30.39,0,0,10,0.00
2012-11-17,58.5,41.2,28.6,41.5,32.4,24.4,99,77,30,30.57,30.45,0,0,0,0.00
2012-11-18,60.4,44.9,35.1,39.4,34.4,28.4,99,70,32,30.48,30.32,4,0,4,0.00
2012-11-19,59.7,46.4,38.7,45.9,37.2,32.0,98,72,40,30.32,30.10,0,0,0,0.07
2012-11-20,61.3,47.4,34.2,48.6,42.6,32.5,97,85,54,30.21,30.06,0,0,0,0.00
2012-11-21,63.0,44.7,29.8,46.4,37.2,29.3,99,78,39,30.24,30.03,0,0,1,0.00
2012-11-22,65.7,53.0,42.3,49.8,42.8,33.6,91,70,43,30.03,29.68,1,0,1,0.00
2012-11-23,42.3,30.1,24.6,33.6,16.3,10.6,71,56,48,30.25,29.79,1,0,18,0.00
2012-11-24,33.6,26.3,22.5,18.3,11.6,7.7,65,54,40,30.29,29.96,0,0,0,0.00
2012-11-25,41.4,31.0,21.6,22.3,18.8,14.5,77,61,44,30.12,29.87,0,0,0,0.00
2012-11-26,30.2,24.5,14.7,19.2,11.0,0.7,69,56,41,30.44,30.12,0,0,0,0.00
2012-11-27,32.2,22.5,10.4,11.8,5.6,1.6,71,49,31,30.45,30.24,0,0,0,0.00
2012-11-28,43.0,31.7,21.4,20.5,15.3,10.0,64,51,33,30.40,30.24,0,0,0,0.00
2012-11-29,56.7,40.7,31.3,40.3,27.4,19.0,96,61,33,30.26,30.07,0,0,0,0.00
2012-11-30,43.7,40.9,39.2,41.9,37.9,34.9,99,89,80,30.21,30.08,0,0,0,0.00
2012-12-1,57.9,48.9,39.6,53.4,44.7,36.3,97,86,71,30.19,29.83,0,0,0,0.02
2012-12-2,59.9,51.8,40.1,53.2,46.8,39.6,99,84,57,30.10,29.82,0,0,0,0.00
2012-12-3,65.7,54.4,41.9,61.5,52.6,41.7,99,94,73,30.08,29.70,0,0,1,0.45
2012-12-4,56.7,45.1,28.2,43.5,29.7,9.7,82,57,34,30.36,29.90,11,0,19,0.01
2012-12-5,41.4,28.7,21.2,26.8,16.5,8.1,83,61,45,30.50,30.24,0,0,1,0.00
2012-12-6,43.2,38.1,31.5,36.1,30.2,24.6,84,73,67,30.24,29.88,1,0,7,0.00
2012-12-7,41.2,37.3,34.3,35.8,29.0,25.7,82,72,61,30.01,29.92,1,0,2,0.00
2012-12-8,40.6,34.5,32.4,30.9,28.2,25.5,91,78,63,30.15,29.94,1,0,4,0.01
2012-12-9,36.3,35.1,32.9,35.6,32.0,26.1,98,89,68,30.13,29.69,12,1,17,0.30
2012-12-10,35.8,30.8,28.0,34.3,25.0,17.6,98,80,57,29.97,29.68,1,0,2,0.00
2012-12-11,33.1,28.5,21.9,21.7,17.4,8.8,82,64,36,30.12,29.94,0,0,1,0.00
2012-12-12,47.8,36.0,25.9,24.4,21.6,18.1,74,57,34,30.26,30.12,0,0,0,0.01
2012-12-13,48.6,37.8,31.6,25.9,22.2,18.5,70,54,32,30.25,30.05,0,0,0,0.00
2012-12-14,48.6,35.7,23.9,36.1,28.6,18.9,94,76,45,30.23,30.04,0,0,0,0.00
2012-12-15,46.2,42.3,35.8,45.5,39.5,31.1,99,90,67,30.04,29.54,0,0,0,0.34
2012-12-16,46.2,40.8,36.0,45.5,38.9,30.9,99,93,82,29.73,29.52,0,0,0,0.02
2012-12-17,36.1,31.3,24.8,31.8,25.1,18.9,84,78,65,29.78,29.71,0,0,0,0.00
2012-12-18,32.5,29.0,24.4,31.1,25.5,18.9,97,87,78,29.85,29.66,0,0,0,0.00
2012-12-19,33.3,30.1,25.2,32.0,27.0,22.1,97,88,76,30.10,29.85,0,0,0,0.00
2012-12-20,40.6,35.3,32.0,40.5,34.5,31.3,99,97,94,29.91,29.15,0,0,1,1.12
2012-12-21,25.7,21.6,15.8,22.8,15.1,7.7,90,76,70,30.24,29.79,0,0,0,0.00
2012-12-22,33.4,20.3,10.8,15.8,10.3,3.7,78,66,43,30.26,29.99,0,0,0,0.00
2012-12-23,27.3,20.8,14.7,18.3,13.7,9.3,82,74,66,30.12,29.97,0,0,0,0.00
2012-12-24,27.1,23.5,18.0,19.9,16.8,12.2,81,75,72,30.17,29.95,0,-749,0,0.00
2012-12-25,29.7,20.8,15.3,18.5,11.0,6.6,79,66,42,30.41,30.17,0,-996,0,0.00
2012-12-26,30.2,27.1,24.1,21.0,17.4,14.9,80,67,60,30.31,30.09,0,-981,0,0.01
2012-12-27,28.8,25.7,24.4,18.5,16.2,14.5,72,67,60,30.25,30.14,0,-321,0,0.00
2012-12-28,33.1,28.6,25.2,27.1,23.6,17.6,92,81,71,30.16,29.92,0,-803,1,0.02
2012-12-29,28.0,24.0,18.1,24.1,18.8,9.3,87,80,68,30.23,29.90,1,-559,1,0.00
2012-12-30,32.2,18.4,7.7,22.1,8.9,0.0,77,67,42,30.38,30.01,1,-154,1,0.00
2012-12-31,32.4,23.0,9.7,21.2,12.4,-3.3,69,63,54,30.22,29.96,0,-996,0,0.00
2013-1-1,18.7,9.4,2.7,-2.4,-5.9,-9.8,63,50,33,30.31,30.21,0,-988,0,0.00